createdAt,value
2022-12-06T00:05:12.471Z,10.50
2022-12-06T00:10:20.252Z,12.47
2022-12-06T00:15:29.594Z,13.17
2022-12-06T00:20:44.461Z,13.90
2022-12-06T00:25:53.466Z,12.47
2022-12-06T00:31:05.019Z,11.07
2022-12-06T00:36:19.801Z,11.67
2022-12-06T00:41:26.446Z,13.50
2022-12-06T00:46:33.304Z,12.13
2022-12-06T00:51:40.323Z,9.97
2022-12-06T00:56:47.789Z,16.47
2022-12-06T01:01:57.826Z,11.83
2022-12-06T01:07:06.465Z,12.43
2022-12-06T01:12:17.364Z,12.20
2022-12-06T01:17:27.240Z,12.03
2022-12-06T01:22:34.103Z,11.67
2022-12-06T01:27:43.040Z,10.67
2022-12-06T01:32:51.207Z,10.87
2022-12-06T01:38:03.010Z,12.13
2022-12-06T01:43:06.920Z,12.67
2022-12-06T01:48:21.777Z,14.17
2022-12-06T01:53:33.499Z,12.67
2022-12-06T01:58:43.665Z,10.23
2022-12-06T02:03:57.393Z,14.77
2022-12-06T02:14:38.444Z,13.50
2022-12-06T02:20:06.856Z,12.30
2022-12-06T02:25:50.886Z,12.33
2022-12-06T02:31:08.998Z,12.07
2022-12-06T02:36:35.083Z,10.53
2022-12-06T02:41:52.505Z,14.37
2022-12-06T02:47:01.046Z,12.73
2022-12-06T02:52:08.776Z,12.80
2022-12-06T02:57:19.596Z,10.63
2022-12-06T03:02:43.109Z,11.93
2022-12-06T03:08:31.352Z,11.27
2022-12-06T03:14:12.094Z,13.63
2022-12-06T03:19:39.918Z,13.60
2022-12-06T03:24:49.611Z,12.40
2022-12-06T03:30:02.692Z,14.03
2022-12-06T03:35:14.444Z,13.63
2022-12-06T03:40:32.728Z,13.97
2022-12-06T03:45:46.105Z,13.33
2022-12-06T03:50:58.705Z,11.63
2022-12-06T03:56:04.863Z,13.73
2022-12-06T04:01:10.346Z,17.20
2022-12-06T04:06:18.017Z,13.40
2022-12-06T04:11:24.794Z,14.90
2022-12-06T04:16:48.619Z,13.33
2022-12-06T04:22:04.771Z,13.30
2022-12-06T04:27:28.577Z,13.90
2022-12-06T04:32:51.836Z,13.57
2022-12-06T04:38:25.216Z,12.70
2022-12-06T04:43:44.586Z,13.63
2022-12-06T04:48:56.102Z,13.13
2022-12-06T04:54:05.747Z,13.83
2022-12-06T04:59:13.988Z,13.00
2022-12-06T05:04:22.531Z,15.10
2022-12-06T05:09:32.063Z,15.33
2022-12-06T05:14:43.773Z,14.93
2022-12-06T05:19:50.814Z,14.57
2022-12-06T05:24:57.577Z,13.30
2022-12-06T05:35:42.885Z,16.37
2022-12-06T05:40:52.944Z,14.30
2022-12-06T05:45:59.520Z,13.60
2022-12-06T05:51:11.078Z,13.13
2022-12-06T05:56:20.969Z,13.70
2022-12-06T06:01:32.095Z,13.80
2022-12-06T06:06:39.669Z,14.60
2022-12-06T06:11:49.078Z,15.17
2022-12-06T06:17:02.611Z,15.10
2022-12-06T06:22:13.939Z,12.90
2022-12-06T06:27:19.202Z,12.50
2022-12-06T06:32:26.794Z,13.10
2022-12-06T06:37:39.536Z,16.90
2022-12-06T06:42:50.242Z,14.53
2022-12-06T06:47:58.888Z,13.80
2022-12-06T06:53:07.222Z,12.37
2022-12-06T06:58:29.880Z,14.10
2022-12-06T07:03:42.771Z,13.57
2022-12-06T07:08:52.482Z,15.60
2022-12-06T07:14:03.564Z,14.87
2022-12-06T07:19:15.158Z,14.27
2022-12-06T07:24:27.117Z,15.17
2022-12-06T07:29:37.652Z,13.07
2022-12-06T07:34:45.534Z,13.50
2022-12-06T07:39:59.799Z,14.90
2022-12-06T07:45:15.556Z,16.90
2022-12-06T07:55:58.306Z,15.73
2022-12-06T08:01:06.732Z,18.63
2022-12-06T08:12:00.678Z,12.80
2022-12-06T08:23:12.286Z,14.30
2022-12-06T08:28:24.108Z,10.90
2022-12-06T08:33:30.506Z,13.67
2022-12-06T08:38:42.760Z,13.50
2022-12-06T08:43:48.536Z,15.13
2022-12-06T08:49:07.420Z,12.77
2022-12-06T08:54:16.940Z,13.73
2022-12-06T08:59:29.282Z,13.27
2022-12-06T09:04:37.548Z,13.87
2022-12-06T09:09:46.676Z,12.57
2022-12-06T09:14:54.941Z,14.73
2022-12-06T09:20:08.134Z,11.00
2022-12-06T09:25:17.721Z,12.13
2022-12-06T09:30:36.549Z,14.57
2022-12-06T09:35:50.739Z,13.00
2022-12-06T09:41:30.016Z,13.73
2022-12-06T09:47:12.980Z,15.50
2022-12-06T09:58:32.497Z,20.57
2022-12-06T10:04:02.435Z,14.93
2022-12-06T10:15:33.034Z,13.37
2022-12-06T10:26:57.174Z,12.53
2022-12-06T10:32:44.617Z,13.33
2022-12-06T10:38:24.041Z,13.60
2022-12-06T10:49:47.450Z,15.17
2022-12-06T10:55:33.376Z,20.97
2022-12-06T11:01:07.092Z,15.57
2022-12-06T11:06:43.980Z,13.17
2022-12-06T11:11:52.693Z,15.43
2022-12-06T11:17:06.909Z,12.90
2022-12-06T11:22:37.888Z,14.50
2022-12-06T11:27:52.417Z,12.30
2022-12-06T11:32:57.865Z,13.63
2022-12-06T11:38:07.664Z,13.67
2022-12-06T11:43:25.413Z,13.20
2022-12-06T11:48:41.298Z,10.60
2022-12-06T11:54:22.235Z,12.17
2022-12-06T11:59:34.109Z,13.53
2022-12-06T12:04:51.731Z,13.93
2022-12-06T12:10:29.185Z,13.97
2022-12-06T12:15:43.254Z,13.03
2022-12-06T12:26:30.959Z,13.70
2022-12-06T12:31:59.811Z,18.37
2022-12-06T12:37:11.993Z,16.67
2022-12-06T12:42:33.566Z,16.00
2022-12-06T12:47:38.845Z,16.03
2022-12-06T12:52:50.163Z,13.93
2022-12-06T12:58:10.973Z,16.50
2022-12-06T13:03:54.114Z,14.07
2022-12-06T13:08:50.848Z,11.00
2022-12-06T13:14:00.753Z,13.63
2022-12-06T13:19:16.807Z,11.70
2022-12-06T13:24:37.486Z,11.57
2022-12-06T13:30:14.431Z,14.57
2022-12-06T13:35:42.580Z,12.17
2022-12-06T13:40:51.241Z,12.80
2022-12-06T13:57:22.432Z,15.37
2022-12-06T14:02:48.573Z,22.70
2022-12-06T14:07:58.385Z,22.33
2022-12-06T14:13:10.683Z,17.47
2022-12-06T14:18:55.627Z,12.87
2022-12-06T14:48:21.960Z,16.50
2022-12-06T15:05:42.478Z,13.93
2022-12-06T15:16:40.672Z,14.73
2022-12-06T15:21:49.066Z,15.83
2022-12-06T15:26:59.892Z,12.77
2022-12-06T15:32:24.904Z,14.90
2022-12-06T15:37:55.019Z,12.80
2022-12-06T15:55:00.989Z,13.77
2022-12-06T16:06:16.810Z,12.43
2022-12-06T16:11:59.193Z,12.20
2022-12-06T16:17:20.446Z,13.07
2022-12-06T16:22:50.232Z,16.13
2022-12-06T16:27:58.291Z,16.43
2022-12-06T16:33:14.864Z,26.27
2022-12-06T16:38:25.995Z,29.97
2022-12-06T16:43:35.333Z,31.03
2022-12-06T16:48:44.195Z,30.40
2022-12-06T16:54:01.265Z,31.47
2022-12-06T16:59:11.266Z,39.40
2022-12-06T17:04:19.098Z,46.93
2022-12-06T17:09:31.412Z,25.90
2022-12-06T17:15:06.833Z,15.77
2022-12-06T17:20:21.089Z,13.77
2022-12-06T17:25:39.105Z,19.23
2022-12-06T17:31:15.643Z,19.97
2022-12-06T17:36:08.736Z,14.80
2022-12-06T17:41:45.769Z,12.40
2022-12-06T17:53:00.139Z,12.23
2022-12-06T18:04:16.177Z,13.57
2022-12-06T18:09:15.411Z,13.77
2022-12-06T18:14:25.889Z,13.20
2022-12-06T18:19:38.417Z,13.33
2022-12-06T18:24:54.460Z,9.33
2022-12-06T18:30:23.864Z,9.90
2022-12-06T18:47:25.102Z,9.10
2022-12-06T18:52:41.020Z,8.50
2022-12-06T18:57:54.325Z,9.40
2022-12-06T19:03:05.102Z,8.10
2022-12-06T19:08:16.959Z,10.23
2022-12-06T19:13:51.635Z,10.20
2022-12-06T19:19:17.104Z,11.00
2022-12-06T19:24:44.833Z,10.20
2022-12-06T19:30:26.252Z,8.87
2022-12-06T19:35:40.626Z,8.70
2022-12-06T19:41:00.335Z,8.37
2022-12-06T19:51:49.918Z,8.53
2022-12-06T19:56:59.201Z,9.37
2022-12-06T20:02:10.057Z,8.17
2022-12-06T20:07:26.146Z,8.43
2022-12-06T20:12:34.806Z,6.60
2022-12-06T20:17:46.989Z,10.30
2022-12-06T20:22:57.240Z,10.37
2022-12-06T20:28:13.313Z,8.40
2022-12-06T20:33:40.684Z,6.57
2022-12-06T20:38:48.418Z,7.93
2022-12-06T20:43:56.066Z,8.07
2022-12-06T20:49:23.342Z,5.70
2022-12-06T20:54:36.345Z,6.63
2022-12-06T20:59:46.648Z,5.27
2022-12-06T21:05:00.967Z,6.00
2022-12-06T21:10:12.857Z,5.17
2022-12-06T21:15:26.842Z,5.43
2022-12-06T21:20:38.328Z,5.63
2022-12-06T21:25:51.979Z,4.70
2022-12-06T21:36:39.187Z,3.70
2022-12-06T21:47:43.008Z,5.47
2022-12-06T21:53:16.262Z,3.67
2022-12-06T21:58:30.498Z,3.53
2022-12-06T22:03:38.612Z,3.17
2022-12-06T22:09:12.218Z,2.60
2022-12-06T22:20:00.505Z,2.60
2022-12-06T22:25:08.588Z,2.90
2022-12-06T22:30:17.397Z,3.20
2022-12-06T22:35:24.070Z,3.77
2022-12-06T22:41:08.636Z,3.50
2022-12-06T22:46:26.942Z,3.37
2022-12-06T22:51:38.529Z,3.17
2022-12-06T22:57:08.613Z,2.30
2022-12-06T23:02:17.385Z,1.90
2022-12-06T23:07:26.278Z,2.13
2022-12-06T23:12:57.928Z,2.77
2022-12-06T23:18:08.256Z,2.80
2022-12-06T23:23:20.937Z,2.57
2022-12-06T23:28:57.494Z,2.10
2022-12-06T23:40:17.085Z,1.57
2022-12-06T23:45:26.867Z,2.20
2022-12-06T23:50:40.087Z,2.03
